Ratings

370 records found.
ID Full Name Model Yacht Namesort descending Spinnaker Rating Non-spin. Rating Base Rating Genoa Spin. Adj. Genoa Non-spin. Adj. Mainsail Adj. Spin. Pole Adj. Asym Adj. Mast Adj. Prop. Adj. Misc. Adj. Yacht Club Certificate Expires Status
14077 Michaelson, Peter Alerion Express 28 Brim 153 168 141 12 12 0 0 0 0 0 0 Edgewood YC 4/30/2020 Published
13801 Vicky Wiseman beneteau first 35 BRIZO 81 89 75 0 0 0 0 6 0 -3 0 barrington yacht club 4/30/2020 Published
13571 Vicky Wiseman beneteau first 35 BRIZO 79 89 75 0 0 0 0 4 0 -3 0 barrington yacht club 4/30/2020 Renewed
13723 Merz, Carl Beneteau Sense 50 SD C'est Bon 82 96 60 12 12 0 0 7 0 0 0 None 4/30/2020 Published
13682 Adam Turinas Sabre 38 MkII Cadence 136 146 117 6 6 0 0 10 0 0 0 NYYC 4/30/2020 Published
13889 Safton, Richard C&C 99 DK Cakewalk 102 123 96 6 6 0 0 0 0 0 0 East Greenwich Yacht Club 4/30/2020 Published
13674 Marc Cohen Cal 33-2 SD Calypso 156 177 138 6 6 0 0 0 0 6 0 4/30/2020 Published
13909 Hawkins, Chip C&C 41 Caneel 78 100 72 3 3 0 0 0 0 0 0 Barrington YC 4/30/2020 Published
13642 Albert Previte First 38 Beneteau Caroline 122 143 111 8 8 0 0 0 0 0 0 Kittery Point Yacht Club 4/30/2020 Published
14309 Peter Parsons J-22 ODR Catch 186 204 186 0 0 0 0 0 0 0 0 Conanicut Yacht Club 4/30/2020 Published
13671 Haydon, Philip Quest 33S Cepheus 87 104 96 0 0 -3 0 0 -6 0 0 Constitution YC 4/30/2020 Provisional
13585 Peter Maloney Sabre 36 Cetacean 136 151 120 6 6 0 0 7 0 0 0 Bristol Yacht Club 4/30/2020 Published
14301 randall saunders archambault 31 ceti alpha 5 108 127 108 0 0 0 0 0 0 0 0 watch hill yc 4/30/2020 Published
14127 Bestoso, Robert L., Jr. Pearson Electra Chairman Arafat 271 290 270 1 1 0 0 0 0 0 0 Jamestown YC 4/30/2020 Published
14234 Lefort, Jack 12 meter Challenge 12 -33 -16 -33 0 0 0 0 0 0 0 0 NYYC/CYC 4/30/2020 Published
13933 Will Pease Gulfstar 40 CB Charmer 121 143 117 1 1 0 0 0 0 0 0 Bristol YC 4/30/2020 Published
14148 Goldlust, Jerry A. 6 Metre Cherokee 150 160 150 0 0 0 0 0 0 0 0 4/30/2020 Published
14176 Bob Lewis Catalina Capri 30 Climax 128 150 117 6 6 0 0 -1 0 0 0 West Bay YC 4/30/2020 Published
14034 Scott, Ian Swan 362 Coco 115 136 114 1 1 0 0 0 0 0 0 Newport/Ida Lewis YC 4/30/2020 Published
13879 D'Albora, Tom First 36.7 Coconut 87 105 78 12 12 0 -3 0 0 0 0 East Greenwich YC 4/30/2020 Published
13877 D'Albora, Tom Beneteau 36.7 Coconut 75 93 78 0 0 0 -3 0 0 0 0 East Greenwich YC 4/30/2020 Published
14153 Westcott, Edward Etchells 22 ODR Columbia 129 141 129 0 0 0 0 0 0 0 0 Edgewood YC 4/30/2020 Published
13917 Seward, Abbi Laser 28 Comet 148 163 138 12 12 0 -5 0 0 0 0 East Greenwich 4/30/2020 Published
13784 Terajewicz, Chris Morris Justine 36 SD Corvus 174 190 165 3 3 0 0 6 0 -3 0 4/30/2020 Published
13994 Stockwell, Philip J/29 OB MB Corvus 111 132 111 0 0 0 0 0 0 0 0 Barrington YC 4/30/2020 Published
14269 Kirk, William Pearson Flyer Cosmo 141 155 141 0 0 0 0 0 0 0 0 EGYC 4/30/2020 Published
14240 Phil Kinder Pearson Coaster Cover Girl 226 245 225 1 1 0 0 0 0 0 0 Bristol Yacht Club 4/30/2020 Published
13699 Krulisch, Alan Cambria 40 CB Crackerjack 123 132 114 0 0 0 0 12 0 0 -3 Petit Manan YC 4/30/2020 Published
14201 Alfred Nazareth III 1986 Endeavour 38 CC Curiosity 149 172 138 5 5 0 0 0 0 0 0 Rhode Island 4/30/2020 Published
14222 William J Mayer Swan 441 Cygnette 73 96 72 1 1 0 0 0 0 0 0 4/30/2020 Published
13945 Gervais, Mark C&C 34 Dark Star 143 166 141 1 1 0 0 0 -2 0 0 East Greenwich YC 4/30/2020 Published
14227 Eric Wagner J/105 Dark ‘n Stormy 93 111 93 0 0 0 0 0 0 0 0 Buzzards YC, Plymouth YC 4/30/2020 Published
14205 Noonan, Peter Swan 56 SD CR Defiance 3 20 -9 6 6 0 0 3 0 0 0 New York YC 4/30/2020 Published
14186 Michael D'Amelio TP 52 Denali -66 -49 -66 0 0 0 0 0 0 0 0 St Barth's 4/30/2020 Published
13912 Spencer Fulweiler Helsinki 35, H-35 Diana 108 127 93 12 12 0 0 0 0 0 0 NYYC 4/30/2020 Published
13704 Johnson, Eric M. C&C 41 Dirigo 85 107 72 7 7 0 0 0 0 0 0 Eastport YC 4/30/2020 Published
13594 McGuire, John J/29 MH OB Dirty Harry 110 132 111 0 0 0 0 -1 0 0 0 4/30/2020 Published
13614 Vincent McAteer Summit 35 Divided Sky 60 77 60 0 0 0 0 0 0 0 0 New York Yacht Club / East Greenwich Yacht Club 4/30/2020 Published
13893 Smith, Stephen Pearson 30 Dog Days 192 213 180 6 6 0 0 0 0 0 0 Coles River Club 4/30/2020 Published
13866 Cerbo, Vincent C&C 25 Double Entendre 231 253 222 6 6 0 0 0 0 0 0 Wickford YC 4/30/2020 Published
13640 Michael Hennessy Class 40 Dragon -9 6 -9 0 0 0 0 0 0 0 0 Mudheads 4/30/2020 Published
13780 Kempe, Bob Catalina 400 WK Drift Away 121 141 111 4 4 0 0 0 0 0 0 East Greemwich YC 4/30/2020 Published
14177 Nickson, John/Clavin, Bill C&C 37/40 XL Duck Soup 85 107 78 4 4 0 0 0 0 0 0 East Greenwich YC 4/30/2020 Published
13855 Lipman, Stephen J/37 C WK Duck Soup 94 114 87 1 1 0 0 0 0 0 0 Newort Yacht Club 4/30/2020 Published
14193 John R Thouron J/122 DUNDER 36 55 36 0 0 0 0 0 0 0 0 4/30/2020 Published
14318 Brachet, Nick Pacer 310 Sprint Dune Buggy 102 114 99 0 0 0 0 0 0 0 0 4/30/2020 Published
13753 Levy, Steven J/121 Eagle 23 42 30 0 0 0 0 0 0 0 -7 New York YC/Indian Harbor YC 4/30/2020 Published
14054 Mc Carthy, Peter E. J/80 ODR Eagle 120 137 120 0 0 0 0 0 0 0 0 Ida Lewis YC 4/30/2020 Published
13729 Levy, Steven J/121 Eagle 30 49 30 0 0 0 0 0 0 0 0 New York YC/Indian Harbor YC 4/30/2020 Published
14229 David Kriegel S&S 45" Easterly 138 153 135 0 0 0 0 0 0 0 0 NYYC / SIYC 4/30/2020 Provisional

Pages